sensor_id;sensor_type;location;lat;lon;timestamp;P1;durP1;ratioP1;P2;durP2;ratioP2
17921;SDS011;9086;50.966;3.144;2022-11-03T14:42:07;6.87;;;2.33;;
17921;SDS011;9086;50.966;3.144;2022-11-03T14:44:36;4.13;;;2.37;;
17921;SDS011;9086;50.966;3.144;2022-11-03T14:47:03;4.60;;;2.30;;
17921;SDS011;9086;50.966;3.144;2022-11-03T14:49:30;3.33;;;2.17;;
17921;SDS011;9086;50.966;3.144;2022-11-03T14:51:56;9.77;;;2.77;;
17921;SDS011;9086;50.966;3.144;2022-11-03T14:54:23;3.47;;;2.00;;
17921;SDS011;9086;50.966;3.144;2022-11-03T14:56:49;4.87;;;2.10;;
17921;SDS011;9086;50.966;3.144;2022-11-03T14:59:16;5.13;;;2.20;;
17921;SDS011;9086;50.966;3.144;2022-11-03T15:01:42;5.80;;;2.83;;
17921;SDS011;9086;50.966;3.144;2022-11-03T15:04:08;3.73;;;2.07;;
17921;SDS011;9086;50.966;3.144;2022-11-03T15:06:34;3.73;;;2.37;;
17921;SDS011;9086;50.966;3.144;2022-11-03T15:09:03;4.10;;;2.37;;
17921;SDS011;9086;50.966;3.144;2022-11-03T15:11:31;6.17;;;2.97;;
17921;SDS011;9086;50.966;3.144;2022-11-03T15:13:58;3.40;;;2.37;;
17921;SDS011;9086;50.966;3.144;2022-11-03T15:16:24;5.07;;;2.97;;
17921;SDS011;9086;50.966;3.144;2022-11-03T15:18:50;3.77;;;2.53;;
17921;SDS011;9086;50.966;3.144;2022-11-03T15:21:16;3.87;;;2.77;;
17921;SDS011;9086;50.966;3.144;2022-11-03T15:23:42;7.97;;;3.37;;
17921;SDS011;9086;50.966;3.144;2022-11-03T15:26:09;6.60;;;4.03;;
17921;SDS011;9086;50.966;3.144;2022-11-03T15:28:38;6.40;;;3.33;;
17921;SDS011;9086;50.966;3.144;2022-11-03T15:31:04;6.77;;;3.60;;
17921;SDS011;9086;50.966;3.144;2022-11-03T15:33:30;4.50;;;3.20;;
17921;SDS011;9086;50.966;3.144;2022-11-03T15:35:56;8.67;;;3.27;;
17921;SDS011;9086;50.966;3.144;2022-11-03T15:38:22;5.00;;;3.10;;
17921;SDS011;9086;50.966;3.144;2022-11-03T15:40:48;5.50;;;3.13;;
17921;SDS011;9086;50.966;3.144;2022-11-03T15:43:14;5.73;;;3.30;;
17921;SDS011;9086;50.966;3.144;2022-11-03T15:45:40;7.33;;;3.00;;
17921;SDS011;9086;50.966;3.144;2022-11-03T15:48:07;4.80;;;2.23;;
17921;SDS011;9086;50.966;3.144;2022-11-03T15:50:33;3.20;;;2.37;;
17921;SDS011;9086;50.966;3.144;2022-11-03T15:52:59;2.57;;;2.03;;
17921;SDS011;9086;50.966;3.144;2022-11-03T15:55:25;3.07;;;1.97;;
17921;SDS011;9086;50.966;3.144;2022-11-03T15:57:51;2.47;;;1.70;;
17921;SDS011;9086;50.966;3.144;2022-11-03T16:00:17;2.63;;;1.70;;
17921;SDS011;9086;50.966;3.144;2022-11-03T16:02:44;3.17;;;1.80;;
17921;SDS011;9086;50.966;3.144;2022-11-03T16:05:11;2.53;;;1.87;;
17921;SDS011;9086;50.966;3.144;2022-11-03T16:07:37;2.80;;;1.73;;
17921;SDS011;9086;50.966;3.144;2022-11-03T16:10:03;5.67;;;1.93;;
17921;SDS011;9086;50.966;3.144;2022-11-03T16:12:29;2.63;;;1.80;;
17921;SDS011;9086;50.966;3.144;2022-11-03T16:14:55;2.20;;;1.73;;
17921;SDS011;9086;50.966;3.144;2022-11-03T16:17:22;2.07;;;1.80;;
17921;SDS011;9086;50.966;3.144;2022-11-03T16:19:48;3.27;;;2.73;;
17921;SDS011;9086;50.966;3.144;2022-11-03T16:22:15;3.53;;;2.33;;
17921;SDS011;9086;50.966;3.144;2022-11-03T16:24:41;3.80;;;1.90;;
17921;SDS011;9086;50.966;3.144;2022-11-03T16:27:10;2.70;;;2.00;;
17921;SDS011;9086;50.966;3.144;2022-11-03T16:29:36;9.47;;;6.77;;
17921;SDS011;9086;50.966;3.144;2022-11-03T16:32:02;7.87;;;5.13;;
17921;SDS011;9086;50.966;3.144;2022-11-03T16:34:28;5.53;;;3.47;;
17921;SDS011;9086;50.966;3.144;2022-11-03T16:36:54;6.03;;;3.70;;
17921;SDS011;9086;50.966;3.144;2022-11-03T16:39:20;5.87;;;2.80;;
17921;SDS011;9086;50.966;3.144;2022-11-03T16:41:46;3.43;;;2.57;;
17921;SDS011;9086;50.966;3.144;2022-11-03T16:44:12;4.20;;;3.80;;
17921;SDS011;9086;50.966;3.144;2022-11-03T16:46:38;3.83;;;2.77;;
17921;SDS011;9086;50.966;3.144;2022-11-03T16:49:04;6.17;;;3.10;;
17921;SDS011;9086;50.966;3.144;2022-11-03T16:51:31;5.93;;;4.23;;
17921;SDS011;9086;50.966;3.144;2022-11-03T16:53:57;4.50;;;2.97;;
17921;SDS011;9086;50.966;3.144;2022-11-03T16:56:23;6.37;;;3.47;;
17921;SDS011;9086;50.966;3.144;2022-11-03T16:58:49;4.70;;;3.40;;
17921;SDS011;9086;50.966;3.144;2022-11-03T17:01:16;8.13;;;4.13;;
17921;SDS011;9086;50.966;3.144;2022-11-03T17:03:42;4.63;;;3.63;;
17921;SDS011;9086;50.966;3.144;2022-11-03T17:06:08;4.53;;;3.00;;
17921;SDS011;9086;50.966;3.144;2022-11-03T17:08:34;6.80;;;4.10;;
17921;SDS011;9086;50.966;3.144;2022-11-03T17:11:00;4.70;;;2.87;;
17921;SDS011;9086;50.966;3.144;2022-11-03T17:13:26;3.70;;;2.43;;
17921;SDS011;9086;50.966;3.144;2022-11-03T17:15:53;4.20;;;3.73;;
17921;SDS011;9086;50.966;3.144;2022-11-03T17:18:19;2.97;;;2.00;;
17921;SDS011;9086;50.966;3.144;2022-11-03T17:20:46;3.43;;;2.53;;
17921;SDS011;9086;50.966;3.144;2022-11-03T17:23:12;4.10;;;3.53;;
17921;SDS011;9086;50.966;3.144;2022-11-03T17:25:38;3.80;;;2.80;;
17921;SDS011;9086;50.966;3.144;2022-11-03T17:28:04;3.47;;;1.90;;
17921;SDS011;9086;50.966;3.144;2022-11-03T17:30:32;2.83;;;2.63;;
17921;SDS011;9086;50.966;3.144;2022-11-03T17:32:59;3.53;;;2.20;;
17921;SDS011;9086;50.966;3.144;2022-11-03T17:35:33;3.27;;;2.63;;
17921;SDS011;9086;50.966;3.144;2022-11-03T17:38:02;3.43;;;3.13;;
17921;SDS011;9086;50.966;3.144;2022-11-03T17:40:29;3.80;;;3.40;;
17921;SDS011;9086;50.966;3.144;2022-11-03T17:42:55;3.80;;;3.43;;
17921;SDS011;9086;50.966;3.144;2022-11-03T17:45:22;3.47;;;3.17;;
17921;SDS011;9086;50.966;3.144;2022-11-03T17:47:48;4.17;;;3.87;;
17921;SDS011;9086;50.966;3.144;2022-11-03T17:50:15;4.80;;;4.40;;
17921;SDS011;9086;50.966;3.144;2022-11-03T17:52:42;5.13;;;4.57;;
17921;SDS011;9086;50.966;3.144;2022-11-03T17:55:29;5.00;;;4.47;;
17921;SDS011;9086;50.966;3.144;2022-11-03T17:58:00;5.50;;;5.10;;
17921;SDS011;9086;50.966;3.144;2022-11-03T18:00:26;5.13;;;4.10;;
17921;SDS011;9086;50.966;3.144;2022-11-03T18:02:52;5.30;;;4.43;;
17921;SDS011;9086;50.966;3.144;2022-11-03T18:05:21;5.20;;;4.77;;
17921;SDS011;9086;50.966;3.144;2022-11-03T18:07:48;4.53;;;4.13;;
17921;SDS011;9086;50.966;3.144;2022-11-03T18:10:14;4.27;;;3.97;;
17921;SDS011;9086;50.966;3.144;2022-11-03T18:12:42;3.97;;;3.67;;
17921;SDS011;9086;50.966;3.144;2022-11-03T18:15:27;6.57;;;5.73;;
17921;SDS011;9086;50.966;3.144;2022-11-03T18:17:54;6.80;;;6.30;;
17921;SDS011;9086;50.966;3.144;2022-11-03T18:20:22;8.60;;;7.90;;
17921;SDS011;9086;50.966;3.144;2022-11-03T18:22:50;8.37;;;7.77;;
17921;SDS011;9086;50.966;3.144;2022-11-03T18:25:17;8.57;;;7.83;;
17921;SDS011;9086;50.966;3.144;2022-11-03T18:27:44;7.80;;;7.20;;
17921;SDS011;9086;50.966;3.144;2022-11-03T18:30:11;8.57;;;6.80;;
17921;SDS011;9086;50.966;3.144;2022-11-03T18:32:38;6.43;;;5.47;;
17921;SDS011;9086;50.966;3.144;2022-11-03T18:35:05;5.57;;;5.03;;
17921;SDS011;9086;50.966;3.144;2022-11-03T18:37:31;5.77;;;4.93;;
17921;SDS011;9086;50.966;3.144;2022-11-03T18:39:58;5.73;;;4.80;;
17921;SDS011;9086;50.966;3.144;2022-11-03T18:42:24;5.73;;;5.23;;
17921;SDS011;9086;50.966;3.144;2022-11-03T18:44:50;8.63;;;6.80;;
17921;SDS011;9086;50.966;3.144;2022-11-03T18:47:16;6.83;;;3.77;;
17921;SDS011;9086;50.966;3.144;2022-11-03T18:49:42;6.00;;;4.50;;
17921;SDS011;9086;50.966;3.144;2022-11-03T18:52:12;3.83;;;3.17;;
17921;SDS011;9086;50.966;3.144;2022-11-03T18:54:39;5.03;;;3.87;;
17921;SDS011;9086;50.966;3.144;2022-11-03T18:57:07;3.20;;;2.43;;
17921;SDS011;9086;50.966;3.144;2022-11-03T18:59:34;2.57;;;2.37;;
17921;SDS011;9086;50.966;3.144;2022-11-03T19:02:02;2.73;;;2.53;;
17921;SDS011;9086;50.966;3.144;2022-11-03T19:04:28;3.10;;;2.90;;
17921;SDS011;9086;50.966;3.144;2022-11-03T19:06:56;2.10;;;2.00;;
17921;SDS011;9086;50.966;3.144;2022-11-03T19:09:24;2.23;;;2.00;;
17921;SDS011;9086;50.966;3.144;2022-11-03T19:11:51;2.53;;;2.33;;
17921;SDS011;9086;50.966;3.144;2022-11-03T19:14:21;2.23;;;2.03;;
17921;SDS011;9086;50.966;3.144;2022-11-03T19:16:47;3.27;;;2.30;;
17921;SDS011;9086;50.966;3.144;2022-11-03T19:19:16;2.57;;;2.03;;
17921;SDS011;9086;50.966;3.144;2022-11-03T19:21:42;2.80;;;2.50;;
17921;SDS011;9086;50.966;3.144;2022-11-03T19:24:08;3.43;;;3.13;;
17921;SDS011;9086;50.966;3.144;2022-11-03T19:26:36;5.63;;;4.70;;
17921;SDS011;9086;50.966;3.144;2022-11-03T19:29:05;4.50;;;4.10;;
17921;SDS011;9086;50.966;3.144;2022-11-03T19:31:36;5.67;;;3.40;;
17921;SDS011;9086;50.966;3.144;2022-11-03T19:34:03;3.80;;;3.50;;
17921;SDS011;9086;50.966;3.144;2022-11-03T19:36:30;5.40;;;3.30;;
17921;SDS011;9086;50.966;3.144;2022-11-03T19:38:56;4.10;;;3.80;;
17921;SDS011;9086;50.966;3.144;2022-11-03T19:41:23;4.83;;;3.90;;
17921;SDS011;9086;50.966;3.144;2022-11-03T19:44:08;6.27;;;4.70;;
17921;SDS011;9086;50.966;3.144;2022-11-03T19:46:35;12.37;;;4.30;;
17921;SDS011;9086;50.966;3.144;2022-11-03T19:49:02;4.77;;;4.27;;
17921;SDS011;9086;50.966;3.144;2022-11-03T19:51:28;4.83;;;4.43;;
17921;SDS011;9086;50.966;3.144;2022-11-03T19:53:55;6.30;;;4.97;;
17921;SDS011;9086;50.966;3.144;2022-11-03T19:56:21;6.67;;;4.57;;
17921;SDS011;9086;50.966;3.144;2022-11-03T19:58:48;7.53;;;5.60;;
17921;SDS011;9086;50.966;3.144;2022-11-03T20:01:14;5.13;;;4.67;;
17921;SDS011;9086;50.966;3.144;2022-11-03T20:03:40;5.33;;;4.33;;
17921;SDS011;9086;50.966;3.144;2022-11-03T20:06:06;5.17;;;4.73;;
17921;SDS011;9086;50.966;3.144;2022-11-03T20:08:32;4.33;;;4.00;;
17921;SDS011;9086;50.966;3.144;2022-11-03T20:10:59;5.00;;;4.60;;
17921;SDS011;9086;50.966;3.144;2022-11-03T20:13:26;5.70;;;5.20;;
17921;SDS011;9086;50.966;3.144;2022-11-03T20:15:55;4.80;;;4.40;;
17921;SDS011;9086;50.966;3.144;2022-11-03T20:18:21;5.57;;;4.50;;
17921;SDS011;9086;50.966;3.144;2022-11-03T20:20:47;4.57;;;4.20;;
17921;SDS011;9086;50.966;3.144;2022-11-03T20:23:34;5.10;;;4.63;;
17921;SDS011;9086;50.966;3.144;2022-11-03T20:26:03;4.40;;;4.00;;
17921;SDS011;9086;50.966;3.144;2022-11-03T20:28:29;4.70;;;4.30;;
17921;SDS011;9086;50.966;3.144;2022-11-03T20:30:56;6.27;;;4.20;;
17921;SDS011;9086;50.966;3.144;2022-11-03T20:33:24;5.80;;;4.37;;
17921;SDS011;9086;50.966;3.144;2022-11-03T20:35:51;5.23;;;4.83;;
17921;SDS011;9086;50.966;3.144;2022-11-03T20:38:18;5.80;;;3.90;;
17921;SDS011;9086;50.966;3.144;2022-11-03T20:40:44;3.80;;;3.50;;
17921;SDS011;9086;50.966;3.144;2022-11-03T20:43:34;4.80;;;3.70;;
17921;SDS011;9086;50.966;3.144;2022-11-03T20:45:58;3.77;;;3.47;;
17921;SDS011;9086;50.966;3.144;2022-11-03T20:48:24;5.27;;;3.47;;
17921;SDS011;9086;50.966;3.144;2022-11-03T20:50:50;3.77;;;3.13;;
17921;SDS011;9086;50.966;3.144;2022-11-03T20:53:17;3.60;;;3.30;;
17921;SDS011;9086;50.966;3.144;2022-11-03T20:55:45;4.97;;;4.47;;
17921;SDS011;9086;50.966;3.144;2022-11-03T20:58:11;5.73;;;4.20;;
17921;SDS011;9086;50.966;3.144;2022-11-03T21:00:39;5.30;;;4.03;;
17921;SDS011;9086;50.966;3.144;2022-11-03T21:03:16;4.13;;;3.73;;
17921;SDS011;9086;50.966;3.144;2022-11-03T21:05:43;3.70;;;3.20;;
17921;SDS011;9086;50.966;3.144;2022-11-03T21:08:09;3.17;;;2.97;;
17921;SDS011;9086;50.966;3.144;2022-11-03T21:10:36;4.37;;;3.20;;
17921;SDS011;9086;50.966;3.144;2022-11-03T21:13:02;4.33;;;3.03;;
17921;SDS011;9086;50.966;3.144;2022-11-03T21:15:28;3.03;;;2.63;;
17921;SDS011;9086;50.966;3.144;2022-11-03T21:18:13;3.87;;;2.63;;
17921;SDS011;9086;50.966;3.144;2022-11-03T21:20:59;2.60;;;2.40;;
17921;SDS011;9086;50.966;3.144;2022-11-03T21:23:26;3.00;;;2.50;;
17921;SDS011;9086;50.966;3.144;2022-11-03T21:25:52;2.67;;;2.47;;
17921;SDS011;9086;50.966;3.144;2022-11-03T21:28:18;3.27;;;2.10;;
17921;SDS011;9086;50.966;3.144;2022-11-03T21:30:46;4.57;;;2.67;;
17921;SDS011;9086;50.966;3.144;2022-11-03T21:33:13;3.10;;;2.70;;
17921;SDS011;9086;50.966;3.144;2022-11-03T21:35:39;3.10;;;2.50;;
17921;SDS011;9086;50.966;3.144;2022-11-03T21:38:06;2.50;;;2.30;;
17921;SDS011;9086;50.966;3.144;2022-11-03T21:40:32;3.60;;;2.80;;
17921;SDS011;9086;50.966;3.144;2022-11-03T21:42:58;6.80;;;3.57;;
17921;SDS011;9086;50.966;3.144;2022-11-03T21:45:43;4.07;;;3.10;;
17921;SDS011;9086;50.966;3.144;2022-11-03T21:48:09;5.23;;;3.20;;
17921;SDS011;9086;50.966;3.144;2022-11-03T21:50:58;4.53;;;3.83;;
17921;SDS011;9086;50.966;3.144;2022-11-03T21:53:26;7.57;;;3.40;;
17921;SDS011;9086;50.966;3.144;2022-11-03T21:55:53;8.83;;;3.50;;
17921;SDS011;9086;50.966;3.144;2022-11-03T21:58:19;4.23;;;3.20;;
17921;SDS011;9086;50.966;3.144;2022-11-03T22:00:45;3.97;;;2.97;;
17921;SDS011;9086;50.966;3.144;2022-11-03T22:03:11;6.13;;;3.03;;
17921;SDS011;9086;50.966;3.144;2022-11-03T22:05:38;5.63;;;3.27;;
17921;SDS011;9086;50.966;3.144;2022-11-03T22:08:06;4.50;;;3.27;;
17921;SDS011;9086;50.966;3.144;2022-11-03T22:10:38;8.00;;;3.17;;
17921;SDS011;9086;50.966;3.144;2022-11-03T22:13:04;4.97;;;3.47;;
17921;SDS011;9086;50.966;3.144;2022-11-03T22:15:30;4.33;;;3.07;;
17921;SDS011;9086;50.966;3.144;2022-11-03T22:18:15;7.13;;;3.67;;
17921;SDS011;9086;50.966;3.144;2022-11-03T22:20:41;3.93;;;3.30;;
17921;SDS011;9086;50.966;3.144;2022-11-03T22:23:25;5.03;;;3.30;;
17921;SDS011;9086;50.966;3.144;2022-11-03T22:26:10;4.90;;;3.10;;
17921;SDS011;9086;50.966;3.144;2022-11-03T22:28:56;5.53;;;3.23;;
17921;SDS011;9086;50.966;3.144;2022-11-03T22:31:52;5.80;;;3.07;;
17921;SDS011;9086;50.966;3.144;2022-11-03T22:34:18;5.07;;;3.03;;
17921;SDS011;9086;50.966;3.144;2022-11-03T22:37:02;5.83;;;3.47;;
17921;SDS011;9086;50.966;3.144;2022-11-03T22:39:28;5.87;;;3.07;;
17921;SDS011;9086;50.966;3.144;2022-11-03T22:42:13;6.13;;;3.40;;
17921;SDS011;9086;50.966;3.144;2022-11-03T22:44:58;5.70;;;3.40;;
17921;SDS011;9086;50.966;3.144;2022-11-03T22:47:42;5.93;;;3.67;;
17921;SDS011;9086;50.966;3.144;2022-11-03T22:50:08;6.47;;;3.57;;
17921;SDS011;9086;50.966;3.144;2022-11-03T22:52:34;6.27;;;3.30;;
17921;SDS011;9086;50.966;3.144;2022-11-03T22:55:00;5.47;;;2.73;;
17921;SDS011;9086;50.966;3.144;2022-11-03T22:57:28;6.77;;;3.00;;
17921;SDS011;9086;50.966;3.144;2022-11-03T22:59:54;6.43;;;2.93;;
17921;SDS011;9086;50.966;3.144;2022-11-03T23:02:20;4.63;;;2.70;;
17921;SDS011;9086;50.966;3.144;2022-11-03T23:04:46;5.30;;;2.90;;
17921;SDS011;9086;50.966;3.144;2022-11-03T23:07:12;4.87;;;2.33;;
17921;SDS011;9086;50.966;3.144;2022-11-03T23:09:38;3.90;;;2.27;;
17921;SDS011;9086;50.966;3.144;2022-11-03T23:12:04;5.37;;;2.43;;
17921;SDS011;9086;50.966;3.144;2022-11-03T23:14:30;5.93;;;2.33;;
17921;SDS011;9086;50.966;3.144;2022-11-03T23:17:16;5.23;;;2.77;;
17921;SDS011;9086;50.966;3.144;2022-11-03T23:19:42;6.70;;;3.17;;
17921;SDS011;9086;50.966;3.144;2022-11-03T23:22:27;3.10;;;2.80;;
17921;SDS011;9086;50.966;3.144;2022-11-03T23:24:53;3.30;;;2.17;;
17921;SDS011;9086;50.966;3.144;2022-11-03T23:27:25;2.80;;;2.50;;
17921;SDS011;9086;50.966;3.144;2022-11-03T23:29:51;4.47;;;2.50;;
17921;SDS011;9086;50.966;3.144;2022-11-03T23:32:18;3.90;;;2.13;;
17921;SDS011;9086;50.966;3.144;2022-11-03T23:34:44;5.93;;;2.03;;
17921;SDS011;9086;50.966;3.144;2022-11-03T23:37:10;5.40;;;1.83;;
17921;SDS011;9086;50.966;3.144;2022-11-03T23:39:36;5.87;;;1.80;;
17921;SDS011;9086;50.966;3.144;2022-11-03T23:42:02;2.57;;;1.57;;
17921;SDS011;9086;50.966;3.144;2022-11-03T23:44:28;4.90;;;1.80;;
17921;SDS011;9086;50.966;3.144;2022-11-03T23:47:14;2.93;;;1.60;;
17921;SDS011;9086;50.966;3.144;2022-11-03T23:49:58;5.97;;;1.50;;
17921;SDS011;9086;50.966;3.144;2022-11-03T23:52:24;4.00;;;1.50;;
17921;SDS011;9086;50.966;3.144;2022-11-03T23:54:50;3.53;;;1.73;;
17921;SDS011;9086;50.966;3.144;2022-11-03T23:57:17;2.50;;;1.93;;
